Church Rock, New Mexico
Current Conditions -  °F | °C
As of 8:53 PM on Wednesday 26 Nov 2014 (Local Time) from KGUP Reporting Station
Clear Clear  
Wind Chill: 22°   Ceiling: Unl
Heat Index: 27°   Visibility: 10mi
Dew Point: 10°   Wind: 5mph
Humidity: 49%   Direction: 70°ENE
Pressure: 30.46"   Gusts: NA
Location:  35.53°N, 108.6°W
Report Text: KGUP 270353Z AUTO 07004KT 10SM CLR M03/M12 A3046 RMK AO2 SLP337 T10281122
Loading
Personal Weather Stations






























Interactive Weather Map New forecast layout! Learn more

10-Day Weather Forecast

Advertisements
Track Severe Weather on mobile